createdAt,value
2022-08-04T00:01:09.713Z,76.50
2022-08-04T00:03:53.071Z,76.30
2022-08-04T00:06:39.369Z,76.30
2022-08-04T00:09:24.361Z,76.20
2022-08-04T00:11:58.975Z,76.20
2022-08-04T00:14:32.394Z,76.20
2022-08-04T00:17:01.002Z,76.10
2022-08-04T00:19:37.440Z,76.10
2022-08-04T00:22:10.350Z,75.90
2022-08-04T00:24:41.139Z,76.10
2022-08-04T00:27:10.052Z,76.10
2022-08-04T00:29:40.612Z,76.10
2022-08-04T00:32:09.713Z,76.20
2022-08-04T00:34:39.453Z,76.30
2022-08-04T00:37:08.361Z,76.40
2022-08-04T00:39:37.086Z,76.40
2022-08-04T00:42:35.839Z,76.60
2022-08-04T00:46:15.691Z,76.90
2022-08-04T00:49:03.752Z,76.90
2022-08-04T00:52:31.854Z,77.10
2022-08-04T00:55:02.417Z,77.10
2022-08-04T00:57:56.021Z,77.20
2022-08-04T01:00:24.809Z,77.30
2022-08-04T01:03:11.915Z,77.50
2022-08-04T01:05:57.993Z,77.50
2022-08-04T01:08:50.704Z,77.50
2022-08-04T01:11:56.425Z,77.60
2022-08-04T01:14:53.434Z,78.10
2022-08-04T01:17:28.911Z,78.00
2022-08-04T01:20:07.475Z,78.00
2022-08-04T01:23:36.841Z,78.20
2022-08-04T01:26:57.218Z,78.50
2022-08-04T01:29:43.937Z,78.90
2022-08-04T01:32:26.006Z,80.10
2022-08-04T01:35:02.206Z,80.80
2022-08-04T01:37:55.957Z,80.90
2022-08-04T01:40:27.684Z,81.20
2022-08-04T01:43:01.812Z,81.80
2022-08-04T01:45:32.043Z,82.40
2022-08-04T01:48:04.467Z,82.60
2022-08-04T01:50:36.048Z,83.20
2022-08-04T01:53:05.445Z,83.60
2022-08-04T01:55:54.881Z,83.70
2022-08-04T01:58:26.180Z,83.80
2022-08-04T02:01:05.042Z,83.90
2022-08-04T02:04:21.747Z,84.50
2022-08-04T02:06:36.167Z,84.70
2022-08-04T02:09:17.948Z,84.40
2022-08-04T02:12:00.361Z,84.60
2022-08-04T02:14:41.768Z,84.50
2022-08-04T02:17:30.277Z,84.90
2022-08-04T02:20:24.273Z,85.30
2022-08-04T02:23:00.027Z,85.80
2022-08-04T02:25:33.817Z,85.90
2022-08-04T02:28:28.383Z,86.20
2022-08-04T02:31:15.564Z,86.90
2022-08-04T02:33:53.251Z,86.10
2022-08-04T02:36:29.036Z,86.20
2022-08-04T02:39:00.895Z,86.30
2022-08-04T02:41:32.002Z,86.50
2022-08-04T02:44:05.460Z,86.50
2022-08-04T02:46:35.881Z,87.00
2022-08-04T02:49:09.604Z,87.30
2022-08-04T02:51:44.229Z,87.70
2022-08-04T02:54:12.771Z,87.90
2022-08-04T02:56:46.004Z,87.70
2022-08-04T02:59:22.543Z,88.20
2022-08-04T03:01:57.498Z,89.40
2022-08-04T03:05:01.824Z,88.90
2022-08-04T03:08:40.289Z,89.20
2022-08-04T03:11:44.296Z,88.90
2022-08-04T03:14:55.583Z,89.20
2022-08-04T03:17:56.833Z,89.10
2022-08-04T03:21:09.118Z,89.30
2022-08-04T03:24:43.720Z,89.80
2022-08-04T03:27:26.797Z,90.00
2022-08-04T03:30:11.141Z,90.00
2022-08-04T03:33:36.757Z,90.20
2022-08-04T03:37:04.895Z,90.20
2022-08-04T03:40:17.809Z,90.30
2022-08-04T03:43:58.406Z,90.30
2022-08-04T03:47:12.930Z,90.60
2022-08-04T03:50:29.331Z,90.70
2022-08-04T03:53:32.276Z,91.00
2022-08-04T03:56:45.815Z,90.90
2022-08-04T03:59:57.162Z,90.90
2022-08-04T04:03:03.868Z,91.00
2022-08-04T04:06:15.148Z,90.90
2022-08-04T04:09:16.086Z,91.00
2022-08-04T04:12:08.626Z,91.00
2022-08-04T04:14:54.851Z,91.00
2022-08-04T04:18:13.515Z,91.00
2022-08-04T04:21:11.050Z,91.20
2022-08-04T04:24:05.773Z,91.20
2022-08-04T04:26:58.501Z,91.10
2022-08-04T04:30:04.293Z,91.10
2022-08-04T04:32:53.191Z,91.10
2022-08-04T04:35:39.011Z,91.20
2022-08-04T04:38:45.952Z,91.20
2022-08-04T04:41:41.567Z,91.40
2022-08-04T04:44:49.254Z,91.20
2022-08-04T04:47:43.034Z,91.70
2022-08-04T04:50:36.461Z,91.90
2022-08-04T04:53:18.964Z,91.80
2022-08-04T04:55:58.422Z,91.90
2022-08-04T04:58:33.058Z,91.70
2022-08-04T05:01:42.394Z,91.70
2022-08-04T05:04:40.494Z,91.50
2022-08-04T05:07:39.371Z,91.30
2022-08-04T05:10:29.061Z,91.30
2022-08-04T05:14:37.971Z,91.30
2022-08-04T05:16:26.190Z,91.40
2022-08-04T05:19:09.097Z,91.20
2022-08-04T05:21:45.167Z,91.10
2022-08-04T05:24:21.875Z,91.30
2022-08-04T05:26:56.097Z,91.30
2022-08-04T05:29:31.864Z,91.20
2022-08-04T05:32:11.275Z,91.40
2022-08-04T05:34:46.132Z,91.70
2022-08-04T05:37:20.132Z,91.50
2022-08-04T05:39:56.768Z,91.20
2022-08-04T05:42:27.455Z,92.00
2022-08-04T05:44:58.725Z,92.10
2022-08-04T05:47:30.316Z,91.90
2022-08-04T05:50:03.040Z,92.00
2022-08-04T05:52:35.331Z,91.70
2022-08-04T05:55:06.547Z,91.70
2022-08-04T05:57:36.428Z,91.40
2022-08-04T06:00:38.484Z,91.40
2022-08-04T06:03:03.124Z,91.10
2022-08-04T06:05:32.139Z,91.00
2022-08-04T06:08:11.796Z,91.70
2022-08-04T06:10:45.489Z,92.00
2022-08-04T06:13:46.635Z,91.50
2022-08-04T06:16:29.291Z,91.80
2022-08-04T06:19:58.891Z,91.70
2022-08-04T06:22:00.555Z,91.60
2022-08-04T06:24:32.365Z,91.20
2022-08-04T06:27:04.765Z,90.90
2022-08-04T06:29:36.650Z,90.40
2022-08-04T06:32:28.588Z,90.40
2022-08-04T06:35:06.403Z,89.50
2022-08-04T06:37:42.346Z,87.50
2022-08-04T06:40:30.032Z,86.40
2022-08-04T06:43:03.444Z,85.70
2022-08-04T06:45:35.537Z,83.20
2022-08-04T06:48:06.340Z,82.90
2022-08-04T06:51:27.653Z,83.20
2022-08-04T06:53:27.587Z,82.80
2022-08-04T06:55:57.835Z,82.60
2022-08-04T06:58:32.930Z,81.80
2022-08-04T07:01:03.179Z,82.30
2022-08-04T07:03:33.530Z,81.00
2022-08-04T07:06:06.190Z,81.20
2022-08-04T07:08:43.561Z,80.30
2022-08-04T07:11:13.530Z,80.80
2022-08-04T07:13:45.149Z,80.60
2022-08-04T07:16:16.487Z,81.10
2022-08-04T07:18:45.561Z,80.10
2022-08-04T07:21:23.217Z,79.50
2022-08-04T07:23:52.304Z,80.10
2022-08-04T07:26:20.776Z,80.40
2022-08-04T07:28:49.353Z,80.50
2022-08-04T07:31:34.031Z,80.30
2022-08-04T07:34:21.132Z,79.80
2022-08-04T07:36:55.524Z,79.50
2022-08-04T07:39:29.350Z,79.10
2022-08-04T07:42:01.767Z,79.70
2022-08-04T07:44:32.103Z,79.60
2022-08-04T07:47:02.579Z,79.20
2022-08-04T07:49:54.870Z,78.90
2022-08-04T07:52:22.315Z,78.90
2022-08-04T07:54:52.502Z,78.80
2022-08-04T07:57:40.106Z,79.10
2022-08-04T08:00:14.284Z,78.70
2022-08-04T08:02:44.309Z,79.00
2022-08-04T08:05:16.746Z,79.00
2022-08-04T08:07:50.489Z,78.70
2022-08-04T08:10:22.782Z,78.80
2022-08-04T08:12:53.149Z,79.10
2022-08-04T08:15:22.750Z,79.10
2022-08-04T08:17:58.476Z,78.20
2022-08-04T08:20:33.003Z,78.20
2022-08-04T08:23:04.173Z,78.10
2022-08-04T08:25:34.987Z,77.80
2022-08-04T08:28:05.769Z,77.00
2022-08-04T08:30:35.064Z,76.80
2022-08-04T08:33:07.551Z,74.60
2022-08-04T08:35:53.677Z,75.80
2022-08-04T08:38:42.263Z,74.10
2022-08-04T08:42:15.392Z,73.70
2022-08-04T08:45:28.681Z,74.90
2022-08-04T08:48:34.371Z,75.00
2022-08-04T08:51:32.487Z,75.00
2022-08-04T08:54:42.545Z,74.40
2022-08-04T08:57:59.297Z,74.30
2022-08-04T09:00:42.622Z,73.80
2022-08-04T09:04:01.232Z,74.30
2022-08-04T09:06:55.304Z,74.50
2022-08-04T09:10:08.276Z,74.00
2022-08-04T09:12:47.048Z,73.90
2022-08-04T09:15:19.757Z,74.20
2022-08-04T09:17:55.240Z,73.60
2022-08-04T09:20:35.753Z,73.50
2022-08-04T09:23:19.967Z,73.30
2022-08-04T09:26:02.448Z,73.90
2022-08-04T09:28:54.369Z,74.60
2022-08-04T09:31:51.574Z,74.30
2022-08-04T09:34:36.278Z,73.90
2022-08-04T09:37:16.382Z,73.90
2022-08-04T09:39:58.787Z,74.70
2022-08-04T09:42:42.508Z,74.90
2022-08-04T09:45:26.671Z,74.10
2022-08-04T09:48:03.729Z,73.50
2022-08-04T09:50:39.044Z,73.50
2022-08-04T09:53:31.020Z,71.70
2022-08-04T09:56:10.728Z,71.10
2022-08-04T09:59:02.706Z,70.10
2022-08-04T10:01:33.939Z,69.70
2022-08-04T10:04:05.616Z,69.30
2022-08-04T10:07:10.889Z,70.90
2022-08-04T10:09:53.492Z,66.50
2022-08-04T10:12:47.717Z,66.00
2022-08-04T10:15:21.643Z,65.10
2022-08-04T10:18:16.719Z,64.90
2022-08-04T10:21:06.849Z,64.90
2022-08-04T10:24:08.750Z,63.80
2022-08-04T10:26:53.115Z,63.10
2022-08-04T10:29:31.957Z,63.30
2022-08-04T10:32:13.399Z,62.90
2022-08-04T10:35:02.393Z,65.10
2022-08-04T10:37:55.267Z,65.50
2022-08-04T10:40:39.927Z,65.90
2022-08-04T10:43:22.266Z,64.90
2022-08-04T10:45:59.468Z,65.30
2022-08-04T10:48:45.613Z,64.80
2022-08-04T10:51:26.326Z,64.50
2022-08-04T10:54:02.448Z,64.20
2022-08-04T10:56:39.029Z,63.70
2022-08-04T10:59:16.201Z,63.10
2022-08-04T11:02:03.041Z,63.10
2022-08-04T11:04:45.329Z,62.70
2022-08-04T11:07:15.559Z,61.30
2022-08-04T11:09:46.851Z,61.90
2022-08-04T11:12:22.388Z,61.00
2022-08-04T11:14:59.884Z,60.90
2022-08-04T11:17:34.542Z,60.20
2022-08-04T11:20:34.951Z,59.20
2022-08-04T11:23:10.854Z,58.00
2022-08-04T11:25:53.917Z,57.80
2022-08-04T11:28:40.070Z,57.90
2022-08-04T11:31:15.224Z,57.20
2022-08-04T11:33:55.214Z,56.70
2022-08-04T11:36:37.701Z,55.80
2022-08-04T11:39:13.963Z,54.80
2022-08-04T11:41:52.513Z,53.80
2022-08-04T11:44:30.285Z,53.40
2022-08-04T11:47:05.899Z,53.30
2022-08-04T11:49:56.170Z,52.80
2022-08-04T11:52:30.479Z,52.50
2022-08-04T11:55:01.213Z,52.40
2022-08-04T11:57:35.235Z,52.30
2022-08-04T12:00:10.935Z,52.70
2022-08-04T12:03:09.881Z,51.90
2022-08-04T12:05:53.473Z,50.80
2022-08-04T12:08:45.692Z,50.30
2022-08-04T12:11:36.083Z,49.90
2022-08-04T12:14:22.982Z,49.70
2022-08-04T12:17:01.867Z,49.50
2022-08-04T12:20:03.387Z,48.80
2022-08-04T12:22:40.992Z,48.40
2022-08-04T12:25:19.370Z,47.80
2022-08-04T12:27:54.742Z,47.70
2022-08-04T12:30:58.643Z,47.00
2022-08-04T12:33:23.833Z,46.90
2022-08-04T12:36:27.122Z,46.50
2022-08-04T12:39:11.349Z,46.50
2022-08-04T12:41:51.719Z,46.10
2022-08-04T12:44:38.006Z,45.50
2022-08-04T12:47:27.478Z,45.30
2022-08-04T12:50:04.524Z,45.00
2022-08-04T12:53:02.191Z,45.30
2022-08-04T12:55:34.919Z,44.90
2022-08-04T12:58:42.757Z,45.30
2022-08-04T13:02:10.040Z,44.00
2022-08-04T13:04:02.228Z,44.30
2022-08-04T13:06:34.983Z,44.30
2022-08-04T13:09:10.899Z,43.70
2022-08-04T13:11:54.409Z,43.50
2022-08-04T13:14:29.841Z,43.60
2022-08-04T13:17:02.203Z,42.90
2022-08-04T13:19:33.861Z,43.10
2022-08-04T13:22:10.700Z,43.20
2022-08-04T13:25:18.451Z,42.90
2022-08-04T13:27:42.937Z,42.80
2022-08-04T13:30:22.630Z,42.80
2022-08-04T13:32:58.379Z,42.50
2022-08-04T13:35:56.151Z,42.10
2022-08-04T13:38:21.581Z,42.20
2022-08-04T13:40:51.524Z,41.60
2022-08-04T13:44:18.788Z,42.30
2022-08-04T13:46:27.787Z,42.60
2022-08-04T13:49:26.047Z,41.80
2022-08-04T13:51:57.727Z,41.90
2022-08-04T13:54:30.519Z,41.50
2022-08-04T13:57:06.392Z,41.30
2022-08-04T13:59:39.425Z,41.40
2022-08-04T14:02:10.899Z,41.40
2022-08-04T14:04:51.332Z,41.30
2022-08-04T14:07:22.852Z,40.60
2022-08-04T14:10:02.610Z,40.90
2022-08-04T14:12:45.357Z,41.50
2022-08-04T14:15:59.392Z,41.10
2022-08-04T14:18:27.812Z,40.30
2022-08-04T14:21:08.003Z,40.90
2022-08-04T14:23:49.212Z,40.70
2022-08-04T14:26:20.831Z,40.90
2022-08-04T14:29:27.054Z,40.80
2022-08-04T14:32:12.452Z,40.30
2022-08-04T14:34:55.753Z,40.70
2022-08-04T14:37:25.790Z,40.70
2022-08-04T14:40:18.639Z,40.50
2022-08-04T14:42:55.345Z,40.60
2022-08-04T14:45:34.786Z,40.50
2022-08-04T14:48:06.898Z,40.60
2022-08-04T14:50:39.312Z,40.40
2022-08-04T14:53:09.452Z,39.90
2022-08-04T14:55:39.076Z,39.90
2022-08-04T14:58:34.749Z,39.20
2022-08-04T15:00:59.184Z,39.70
2022-08-04T15:03:28.609Z,39.50
2022-08-04T15:06:05.321Z,39.00
2022-08-04T15:08:37.145Z,39.50
2022-08-04T15:11:05.321Z,39.00
2022-08-04T15:13:33.857Z,39.10
2022-08-04T15:16:07.254Z,39.60
2022-08-04T15:18:39.083Z,39.80
2022-08-04T15:21:09.752Z,40.40
2022-08-04T15:23:39.248Z,40.10
2022-08-04T15:26:12.498Z,40.60
2022-08-04T15:28:46.114Z,40.70
2022-08-04T15:32:06.494Z,40.60
2022-08-04T15:34:03.323Z,40.60
2022-08-04T15:36:37.135Z,41.30
2022-08-04T15:39:16.734Z,41.30
2022-08-04T15:41:55.696Z,41.40
2022-08-04T15:45:09.598Z,41.70
2022-08-04T15:47:38.053Z,41.80
2022-08-04T15:50:09.516Z,42.00
2022-08-04T15:53:12.768Z,42.50
2022-08-04T15:55:43.937Z,42.90
2022-08-04T15:58:13.183Z,43.10
2022-08-04T16:01:15.517Z,43.60
2022-08-04T16:03:58.048Z,43.80
2022-08-04T16:06:45.192Z,43.80
2022-08-04T16:09:25.577Z,44.10
2022-08-04T16:13:04.945Z,44.30
2022-08-04T16:15:41.027Z,44.70
2022-08-04T16:18:14.533Z,44.50
2022-08-04T16:20:57.191Z,44.70
2022-08-04T16:24:02.275Z,44.50
2022-08-04T16:26:57.461Z,44.50
2022-08-04T16:29:37.745Z,44.60
2022-08-04T16:32:23.477Z,45.20
2022-08-04T16:34:57.086Z,44.90
2022-08-04T16:37:31.662Z,44.70
2022-08-04T16:40:31.738Z,44.90
2022-08-04T16:43:07.260Z,45.70
2022-08-04T16:45:54.073Z,45.50
2022-08-04T16:48:26.881Z,45.50
2022-08-04T16:51:04.562Z,45.50
2022-08-04T16:54:03.080Z,45.20
2022-08-04T16:56:33.388Z,45.20
2022-08-04T16:59:11.405Z,45.20
2022-08-04T17:01:45.694Z,45.50
2022-08-04T17:04:13.898Z,45.30
2022-08-04T17:06:43.585Z,45.20
2022-08-04T17:09:13.954Z,45.40
2022-08-04T17:11:43.236Z,45.70
2022-08-04T17:14:13.299Z,45.80
2022-08-04T17:16:43.633Z,45.90
2022-08-04T17:19:23.841Z,46.40
2022-08-04T17:22:02.312Z,46.50
2022-08-04T17:24:32.014Z,46.50
2022-08-04T17:27:00.329Z,46.20
2022-08-04T17:29:43.603Z,46.50
2022-08-04T17:32:19.750Z,46.60
2022-08-04T17:34:49.696Z,46.50
2022-08-04T17:37:38.018Z,46.40
2022-08-04T17:40:11.889Z,47.20
2022-08-04T17:42:41.649Z,47.40
2022-08-04T17:48:03.049Z,47.90
2022-08-04T17:53:52.797Z,49.10
2022-08-04T17:56:33.165Z,50.10
2022-08-04T17:59:14.923Z,50.40
2022-08-04T18:02:05.583Z,50.50
2022-08-04T18:04:41.025Z,50.60
2022-08-04T18:10:52.216Z,51.30
2022-08-04T18:13:26.662Z,51.60
2022-08-04T18:16:12.626Z,52.20
2022-08-04T18:19:09.214Z,53.70
2022-08-04T18:21:46.180Z,54.40
2022-08-04T18:24:34.143Z,54.60
2022-08-04T18:27:14.571Z,54.80
2022-08-04T18:30:15.355Z,54.80
2022-08-04T18:35:22.890Z,55.70
2022-08-04T18:38:05.084Z,55.80
2022-08-04T18:40:52.542Z,56.10
2022-08-04T18:43:28.665Z,56.20
2022-08-04T18:46:14.016Z,56.40
2022-08-04T18:48:42.964Z,57.00
2022-08-04T18:51:23.626Z,57.40
2022-08-04T18:53:55.157Z,57.60
2022-08-04T18:56:29.756Z,57.60
2022-08-04T18:59:00.937Z,58.20
2022-08-04T19:01:29.764Z,58.50
2022-08-04T19:04:33.184Z,58.60
2022-08-04T19:07:29.403Z,58.70
2022-08-04T19:09:57.997Z,58.90
2022-08-04T19:12:28.465Z,59.20
2022-08-04T19:14:58.789Z,59.20
2022-08-04T19:17:55.254Z,59.40
2022-08-04T19:20:26.553Z,59.40
2022-08-04T19:24:29.847Z,59.10
2022-08-04T19:26:01.657Z,59.20
2022-08-04T19:28:35.196Z,59.50
2022-08-04T19:31:05.292Z,59.30
2022-08-04T19:33:58.710Z,59.40
2022-08-04T19:39:12.502Z,59.40
2022-08-04T19:42:05.692Z,58.90
2022-08-04T19:44:31.845Z,58.70
2022-08-04T19:47:00.751Z,59.50
2022-08-04T19:50:03.760Z,59.40
2022-08-04T19:52:33.310Z,59.10
2022-08-04T19:55:09.659Z,58.70
2022-08-04T19:57:43.940Z,58.40
2022-08-04T20:00:17.736Z,58.40
2022-08-04T20:03:01.671Z,58.10
2022-08-04T20:08:19.472Z,57.80
2022-08-04T20:10:52.050Z,57.30
2022-08-04T20:13:21.197Z,57.30
2022-08-04T20:15:58.000Z,57.40
2022-08-04T20:18:35.515Z,57.60
2022-08-04T20:21:18.834Z,57.40
2022-08-04T20:23:52.383Z,57.30
2022-08-04T20:26:21.807Z,57.00
2022-08-04T20:31:43.341Z,57.00
2022-08-04T20:34:11.464Z,57.20
2022-08-04T20:36:41.381Z,57.40
2022-08-04T20:39:18.440Z,57.40
2022-08-04T20:41:52.154Z,57.50
2022-08-04T20:44:24.312Z,57.70
2022-08-04T20:46:52.920Z,57.80
2022-08-04T20:49:21.024Z,58.00
2022-08-04T20:54:56.241Z,58.00
2022-08-04T20:57:48.753Z,58.00
2022-08-04T21:00:14.967Z,58.10
2022-08-04T21:02:44.552Z,58.10
2022-08-04T21:05:13.134Z,58.10
2022-08-04T21:10:29.720Z,58.00
2022-08-04T21:12:59.550Z,58.20
2022-08-04T21:15:50.652Z,58.20
2022-08-04T21:18:16.957Z,58.20
2022-08-04T21:20:47.982Z,58.20
2022-08-04T21:23:16.570Z,58.20
2022-08-04T21:25:45.532Z,58.40
2022-08-04T21:28:20.207Z,58.40
2022-08-04T21:30:54.041Z,58.50
2022-08-04T21:33:24.587Z,58.60
2022-08-04T21:36:13.979Z,58.70
2022-08-04T21:38:51.110Z,58.80
2022-08-04T21:41:24.713Z,58.90
2022-08-04T21:43:58.779Z,59.00
2022-08-04T21:49:16.293Z,60.00
2022-08-04T21:51:58.373Z,60.60
2022-08-04T21:54:27.544Z,60.80
2022-08-04T21:56:56.345Z,61.20
2022-08-04T21:59:30.706Z,61.50
2022-08-04T22:04:49.917Z,61.80
2022-08-04T22:07:17.942Z,62.00
2022-08-04T22:10:00.205Z,62.20
2022-08-04T22:12:29.077Z,62.60
2022-08-04T22:15:00.118Z,62.80
2022-08-04T22:17:35.186Z,63.20
2022-08-04T22:20:04.759Z,63.50
2022-08-04T22:22:35.770Z,64.00
2022-08-04T22:28:02.677Z,64.20
2022-08-04T22:30:37.003Z,64.80
2022-08-04T22:33:08.026Z,64.80
2022-08-04T22:35:49.181Z,65.10
2022-08-04T22:38:23.927Z,65.20
2022-08-04T22:40:59.269Z,65.40
2022-08-04T22:43:32.501Z,65.60
2022-08-04T22:46:07.526Z,65.60
2022-08-04T22:48:37.487Z,65.80
2022-08-04T22:51:07.928Z,66.00
2022-08-04T22:53:37.683Z,65.80
2022-08-04T22:56:10.632Z,66.10
2022-08-04T22:58:45.114Z,66.40
2022-08-04T23:01:15.612Z,66.50
2022-08-04T23:03:50.859Z,66.60
2022-08-04T23:06:28.349Z,66.80
2022-08-04T23:08:57.849Z,67.10
2022-08-04T23:11:34.538Z,67.20
2022-08-04T23:14:05.069Z,67.20
2022-08-04T23:16:40.770Z,67.40
2022-08-04T23:19:12.001Z,67.40
2022-08-04T23:21:40.897Z,67.90
2022-08-04T23:24:15.872Z,68.00
2022-08-04T23:26:43.820Z,68.40
2022-08-04T23:29:12.469Z,68.70
2022-08-04T23:31:59.818Z,68.90
2022-08-04T23:34:29.463Z,69.30
2022-08-04T23:36:59.086Z,69.50
2022-08-04T23:40:03.825Z,69.80
2022-08-04T23:42:20.883Z,69.80
2022-08-04T23:44:49.969Z,70.10
2022-08-04T23:48:14.593Z,70.70
2022-08-04T23:50:09.121Z,71.10
2022-08-04T23:52:37.829Z,71.30
2022-08-04T23:55:07.629Z,71.70
2022-08-04T23:58:05.685Z,71.70
